Time;durP1;ratioP1;P1;durP2;ratioP2;P2;SDS_P1;SDS_P2;PMS_P1;PMS_P2;Temp;Humidity;BMP_temperature;BMP_pressure;BME280_temperature;BME280_humidity;BME280_pressure;Samples;Min_cycle;Max_cycle;Signal;HPM_P1;HPM_P2
2022/09/08 00:00:31;;;;;;;4.03;2.20;;;20.20;99.90;;;;;;4993214;28;20856;-64
2022/09/08 00:03:01;;;;;;;2.93;2.30;;;20.30;99.90;;;;;;4993267;28;20456;-65
2022/09/08 00:05:29;;;;;;;4.67;2.83;;;20.30;1.00;;;;;;4993022;28;20299;-64
2022/09/08 00:07:55;;;;;;;4.90;2.67;;;20.40;12.90;;;;;;4992521;28;20515;-63
2022/09/08 00:10:25;;;;;;;6.90;2.93;;;20.30;1.00;;;;;;4992147;28;20412;-63
2022/09/08 00:12:51;;;;;;;4.50;2.63;;;20.30;1.00;;;;;;4992981;28;20475;-65
2022/09/08 00:15:17;;;;;;;6.57;3.33;;;20.20;1.00;;;;;;4993570;28;20439;-67
2022/09/08 00:17:43;;;;;;;4.27;2.30;;;20.20;7.10;;;;;;4992352;28;20559;-67
2022/09/08 00:20:09;;;;;;;4.30;2.50;;;20.30;1.00;;;;;;4991818;28;20415;-67
2022/09/08 00:22:35;;;;;;;10.30;2.77;;;20.20;1.00;;;;;;4992512;28;20191;-65
2022/09/08 00:25:01;;;;;;;8.13;2.70;;;20.20;1.00;;;;;;4992174;28;20435;-67
2022/09/08 00:27:26;;;;;;;10.47;3.33;;;20.20;1.00;;;;;;4994923;28;20220;-66
2022/09/08 00:29:52;;;;;;;3.93;2.43;;;20.20;1.00;;;;;;4996331;28;21832;-67
2022/09/08 00:32:19;;;;;;;4.53;2.30;;;20.20;14.80;;;;;;5000468;28;20288;-67
2022/09/08 00:34:45;;;;;;;3.90;2.30;;;20.20;99.90;;;;;;4991878;28;20238;-67
2022/09/08 00:37:10;;;;;;;3.90;2.30;;;20.20;99.90;;;;;;4991999;28;20968;-67
2022/09/08 00:39:36;;;;;;;6.43;2.70;;;20.20;50.60;;;;;;4991314;28;20268;-67
2022/09/08 00:42:02;;;;;;;9.63;2.40;;;20.20;99.90;;;;;;4991967;28;20180;-66
2022/09/08 00:44:39;;;;;;;14.03;2.80;;;20.20;99.90;;;;;;5009931;28;20290;-66
2022/09/08 00:47:13;;;;;;;16.20;3.17;;;20.30;99.90;;;;;;5012907;28;20545;-68
2022/09/08 00:49:40;;;;;;;6.10;3.00;;;20.20;99.90;;;;;;4998817;28;20487;-66
2022/09/08 00:52:06;;;;;;;2.73;2.00;;;20.20;99.90;;;;;;4994693;28;20605;-66
2022/09/08 00:54:31;;;;;;;3.40;2.90;;;20.10;1.00;;;;;;4992666;28;20503;-65
2022/09/08 00:56:58;;;;;;;3.00;2.30;;;19.90;1.00;;;;;;4992314;28;20165;-66
2022/09/08 00:59:25;;;;;;;4.70;2.83;;;19.60;1.00;;;;;;4992051;28;20264;-66
2022/09/08 01:01:52;;;;;;;6.23;2.37;;;19.40;1.00;;;;;;4992026;28;20936;-63
2022/09/08 01:04:18;;;;;;;5.40;2.67;;;19.30;99.90;;;;;;4991550;28;20777;-65
2022/09/08 01:13:02;;;;;;;5.00;2.73;;;19.30;99.90;;;;;;4989658;28;20462;-66
2022/09/08 01:15:28;;;;;;;2.73;2.33;;;19.30;99.90;;;;;;4989919;28;20840;-65
2022/09/08 01:17:55;;;;;;;8.53;2.73;;;19.30;99.90;;;;;;4991034;28;20423;-65
2022/09/08 01:20:31;;;;;;;9.70;2.90;;;19.30;99.90;;;;;;4991111;28;20177;-65
2022/09/08 01:23:18;;;;;;;7.70;2.60;;;19.40;99.90;;;;;;4991910;28;20411;-65
2022/09/08 01:26:06;;;;;;;3.40;2.10;;;19.40;99.90;;;;;;4972080;28;20456;-66
2022/09/08 01:28:38;;;;;;;6.67;2.47;;;19.50;88.40;;;;;;4971134;28;20993;-67
2022/09/08 01:31:06;;;;;;;2.77;2.10;;;19.50;1.00;;;;;;4971654;28;20423;-67
2022/09/08 01:33:31;;;;;;;3.80;2.20;;;19.50;1.00;;;;;;4971773;28;20417;-66
2022/09/08 01:35:57;;;;;;;5.00;2.70;;;19.60;1.00;;;;;;5001595;28;20452;-67
2022/09/08 01:38:23;;;;;;;4.50;3.00;;;19.70;1.00;;;;;;4990158;28;20521;-67
2022/09/08 01:40:49;;;;;;;4.30;1.97;;;19.70;1.00;;;;;;4991034;28;20187;-67
2022/09/08 01:43:15;;;;;;;3.67;2.07;;;19.70;1.00;;;;;;4990900;28;20411;-67
2022/09/08 01:45:40;;;;;;;3.07;1.83;;;19.50;1.00;;;;;;4991116;28;20204;-66
2022/09/08 01:48:07;;;;;;;4.70;2.40;;;19.40;45.90;;;;;;4992953;28;20203;-66
2022/09/08 01:50:34;;;;;;;5.97;2.67;;;19.40;99.90;;;;;;4990859;28;20185;-66
2022/09/08 01:53:00;;;;;;;5.73;2.50;;;19.30;6.50;;;;;;4991677;28;20555;-67
2022/09/08 01:55:25;;;;;;;3.03;1.77;;;19.30;99.90;;;;;;4997663;28;20528;-67
2022/09/08 01:57:51;;;;;;;5.30;1.80;;;19.40;99.90;;;;;;4990742;28;20197;-66
2022/09/08 02:00:17;;;;;;;5.30;1.80;;;19.50;1.00;;;;;;4990242;28;20230;-66
2022/09/08 02:02:42;;;;;;;5.73;1.60;;;19.50;1.00;;;;;;4990599;28;20204;-67
2022/09/08 02:05:08;;;;;;;10.90;2.20;;;19.40;28.50;;;;;;4990467;28;20202;-67
2022/09/08 02:07:36;;;;;;;3.60;2.40;;;19.50;99.90;;;;;;4990437;28;20255;-67
2022/09/08 02:10:04;;;;;;;2.60;1.80;;;19.50;20.50;;;;;;4990151;28;20416;-67
2022/09/08 02:12:30;;;;;;;4.60;2.63;;;19.50;1.00;;;;;;4990880;28;20510;-67
2022/09/08 02:14:56;;;;;;;9.07;2.33;;;19.50;40.60;;;;;;4990744;28;20468;-67
2022/09/08 02:17:22;;;;;;;9.30;2.83;;;19.50;99.90;;;;;;4990098;28;20191;-64
2022/09/08 02:19:47;;;;;;;6.30;2.00;;;19.50;99.90;;;;;;4990391;28;20412;-66
2022/09/08 02:22:14;;;;;;;4.80;2.13;;;19.40;99.90;;;;;;4991275;28;20231;-66
2022/09/08 02:24:41;;;;;;;4.77;1.97;;;19.40;99.90;;;;;;4989231;28;20200;-67
2022/09/08 02:27:07;;;;;;;4.73;2.30;;;19.50;99.90;;;;;;4993714;28;20779;-67
2022/09/08 02:29:33;;;;;;;11.17;2.57;;;19.50;99.90;;;;;;4990577;28;20419;-67
2022/09/08 02:31:59;;;;;;;7.27;2.20;;;19.60;74.20;;;;;;4991122;28;20192;-66
2022/09/08 02:34:25;;;;;;;11.97;2.30;;;19.60;80.80;;;;;;4990844;28;20479;-66
2022/09/08 02:36:50;;;;;;;6.63;2.30;;;19.60;54.00;;;;;;4988751;23;20233;-66
2022/09/08 02:39:18;;;;;;;5.70;2.27;;;19.50;48.20;;;;;;4953298;28;20590;-66
2022/09/08 02:41:44;;;;;;;3.10;2.03;;;19.50;62.60;;;;;;4960895;28;20655;-64
2022/09/08 02:44:14;;;;;;;2.57;2.00;;;19.50;99.90;;;;;;4951052;28;20534;-65
2022/09/08 02:46:41;;;;;;;6.03;1.90;;;19.50;99.90;;;;;;4951622;28;20198;-65
2022/09/08 02:49:10;;;;;;;3.73;2.10;;;19.50;57.90;;;;;;4950668;29;20417;-65
2022/09/08 02:51:36;;;;;;;3.40;2.03;;;19.40;98.00;;;;;;4951493;28;20472;-64
2022/09/08 02:54:03;;;;;;;4.30;2.20;;;19.40;99.90;;;;;;4950652;28;20418;-65
2022/09/08 02:56:29;;;;;;;2.70;2.17;;;19.40;99.90;;;;;;4951356;28;20950;-63
2022/09/08 02:58:54;;;;;;;10.00;2.93;;;19.40;99.90;;;;;;4950608;28;20414;-63
2022/09/08 03:01:21;;;;;;;5.50;2.23;;;19.40;99.90;;;;;;4951053;28;20405;-65
2022/09/08 03:03:47;;;;;;;5.03;2.57;;;19.40;99.90;;;;;;4950774;28;20187;-65
2022/09/08 03:06:14;;;;;;;7.70;3.10;;;19.40;99.90;;;;;;4950952;28;20414;-65
2022/09/08 03:08:40;;;;;;;7.40;3.10;;;19.50;99.90;;;;;;4949884;28;20175;-65
2022/09/08 03:11:06;;;;;;;3.37;3.07;;;19.50;99.90;;;;;;4950876;28;20425;-65
2022/09/08 03:13:32;;;;;;;4.10;3.37;;;19.40;99.90;;;;;;4951414;28;20162;-65
2022/09/08 03:15:58;;;;;;;4.83;2.93;;;19.40;99.90;;;;;;4954546;28;20414;-65
2022/09/08 03:18:23;;;;;;;6.97;3.47;;;19.40;99.90;;;;;;4949595;28;20252;-64
2022/09/08 03:21:01;;;;;;;4.30;3.10;;;19.40;99.90;;;;;;4954384;29;20175;-64
2022/09/08 03:23:27;;;;;;;4.27;2.80;;;19.40;99.90;;;;;;4953820;28;20209;-64
2022/09/08 03:25:53;;;;;;;10.33;4.07;;;19.40;99.90;;;;;;4954156;28;20926;-65
2022/09/08 03:28:24;;;;;;;5.60;3.40;;;19.40;99.90;;;;;;4953630;28;20666;-65
2022/09/08 03:30:50;;;;;;;5.47;3.03;;;19.40;99.90;;;;;;4954400;28;20175;-64
2022/09/08 03:33:16;;;;;;;6.00;3.17;;;19.40;99.90;;;;;;4954184;28;20969;-64
2022/09/08 03:35:42;;;;;;;7.20;3.60;;;19.50;99.90;;;;;;4953939;28;20407;-64
2022/09/08 03:38:08;;;;;;;4.13;3.20;;;19.50;99.90;;;;;;4953196;28;20508;-64
2022/09/08 03:40:34;;;;;;;6.23;3.33;;;19.40;99.90;;;;;;4953759;28;20414;-63
2022/09/08 03:43:01;;;;;;;6.17;3.57;;;19.40;99.90;;;;;;4954264;28;20185;-65
2022/09/08 03:45:28;;;;;;;6.87;3.63;;;19.40;99.90;;;;;;4953782;28;20477;-61
2022/09/08 03:47:53;;;;;;;4.33;3.13;;;19.40;99.90;;;;;;4953768;28;20442;-63
2022/09/08 03:50:19;;;;;;;4.60;3.80;;;19.30;99.90;;;;;;4945295;28;20425;-62
2022/09/08 03:52:45;;;;;;;13.07;4.07;;;19.30;99.90;;;;;;4938503;28;20229;-64
2022/09/08 03:55:11;;;;;;;5.33;3.67;;;19.30;99.90;;;;;;4934135;29;20175;-61
2022/09/08 03:57:37;;;;;;;5.00;3.90;;;19.30;99.90;;;;;;4934531;29;20564;-61
2022/09/08 04:00:08;;;;;;;7.03;4.40;;;19.30;99.90;;;;;;4934085;29;20924;-64
2022/09/08 04:02:34;;;;;;;10.00;4.17;;;19.30;99.90;;;;;;4935436;29;20904;-62
2022/09/08 04:04:59;;;;;;;5.43;3.77;;;19.20;99.90;;;;;;4934093;29;20417;-62
2022/09/08 04:07:33;;;;;;;4.47;3.60;;;19.30;99.90;;;;;;4937998;29;20186;-63
2022/09/08 04:09:59;;;;;;;12.73;4.07;;;19.20;99.90;;;;;;4952272;28;20238;-63
2022/09/08 04:12:26;;;;;;;9.37;4.27;;;19.30;99.90;;;;;;4953715;28;20884;-64
2022/09/08 04:14:52;;;;;;;4.60;3.37;;;19.20;99.90;;;;;;4950523;28;20421;-60
2022/09/08 04:17:20;;;;;;;6.50;3.80;;;19.20;99.90;;;;;;4933580;29;20445;-62
2022/09/08 04:19:49;;;;;;;7.13;3.60;;;19.20;99.90;;;;;;4933871;29;20926;-64
2022/09/08 04:22:15;;;;;;;8.67;3.90;;;19.20;99.90;;;;;;4934306;29;20730;-64
2022/09/08 04:24:41;;;;;;;11.40;3.60;;;19.30;99.90;;;;;;4933687;29;20410;-63
2022/09/08 04:27:06;;;;;;;14.03;3.93;;;19.20;1.00;;;;;;4932408;29;20512;-64
2022/09/08 04:29:34;;;;;;;9.63;3.97;;;19.30;99.90;;;;;;4933397;29;20220;-66
2022/09/08 04:32:00;;;;;;;26.23;5.10;;;19.30;99.90;;;;;;4933092;29;20746;-62
2022/09/08 04:34:26;;;;;;;9.13;4.73;;;19.20;99.90;;;;;;4933087;29;20434;-62
2022/09/08 04:36:51;;;;;;;5.30;2.90;;;19.20;99.90;;;;;;4931441;29;20773;-64
2022/09/08 04:39:19;;;;;;;8.70;3.50;;;19.30;99.90;;;;;;4930489;29;20234;-63
2022/09/08 04:41:45;;;;;;;24.17;4.90;;;19.20;99.90;;;;;;4931726;29;20234;-65
2022/09/08 04:44:11;;;;;;;4.13;3.37;;;19.20;1.00;;;;;;4930705;29;20423;-64
2022/09/08 04:46:37;;;;;;;5.60;3.13;;;19.20;1.00;;;;;;4930899;29;20285;-65
2022/09/08 04:49:03;;;;;;;12.70;3.53;;;19.10;1.00;;;;;;4930787;29;20258;-65
2022/09/08 04:51:31;;;;;;;5.37;3.70;;;19.10;1.00;;;;;;4929129;29;20450;-65
2022/09/08 04:53:59;;;;;;;6.03;3.50;;;19.10;1.00;;;;;;4930660;29;20726;-65
2022/09/08 04:56:26;;;;;;;10.50;3.70;;;19.10;1.00;;;;;;4929289;29;20438;-65
2022/09/08 04:58:53;;;;;;;13.50;4.00;;;19.00;1.00;;;;;;4929905;29;20410;-65
2022/09/08 05:01:23;;;;;;;10.97;3.60;;;19.10;1.00;;;;;;4930996;29;20809;-64
2022/09/08 05:03:54;;;;;;;13.13;4.60;;;19.10;1.00;;;;;;4930248;29;20497;-64
2022/09/08 05:06:20;;;;;;;31.30;4.97;;;19.20;99.90;;;;;;4924792;29;20884;-65
2022/09/08 05:08:51;;;;;;;10.83;3.60;;;19.10;1.00;;;;;;4929943;29;20449;-64
2022/09/08 05:11:19;;;;;;;13.27;3.77;;;19.20;99.90;;;;;;4930809;29;20454;-65
2022/09/08 05:13:45;;;;;;;23.60;4.30;;;19.20;99.90;;;;;;4930847;29;20418;-64
2022/09/08 05:16:16;;;;;;;16.60;5.10;;;19.10;99.90;;;;;;4931137;29;20478;-65
2022/09/08 05:18:46;;;;;;;21.60;5.30;;;19.10;99.90;;;;;;4930268;29;20457;-66
2022/09/08 05:21:11;;;;;;;6.07;3.40;;;19.10;1.00;;;;;;4930855;29;20513;-63
2022/09/08 05:23:37;;;;;;;9.23;4.20;;;19.00;1.00;;;;;;4930034;29;20502;-65
2022/09/08 05:26:08;;;;;;;11.07;3.70;;;19.10;1.00;;;;;;4930527;29;20233;-65
2022/09/08 05:28:36;;;;;;;26.33;5.83;;;19.10;1.00;;;;;;4928837;29;20269;-64
2022/09/08 05:31:03;;;;;;;13.23;3.67;;;19.00;1.00;;;;;;4929430;29;20505;-63
2022/09/08 05:33:29;;;;;;;13.37;4.20;;;19.00;1.00;;;;;;4930715;29;20801;-63
2022/09/08 05:35:55;;;;;;;8.80;3.37;;;19.00;1.00;;;;;;4930679;29;21109;-65
2022/09/08 05:38:21;;;;;;;22.73;3.60;;;19.00;1.00;;;;;;4928827;29;20541;-65
2022/09/08 05:40:47;;;;;;;7.47;3.30;;;19.00;1.00;;;;;;4928670;29;20634;-64
2022/09/08 05:43:14;;;;;;;12.33;3.63;;;18.90;1.00;;;;;;4930420;29;20537;-63
2022/09/08 05:45:44;;;;;;;16.33;4.07;;;19.00;1.00;;;;;;4930211;29;20261;-65
2022/09/08 05:48:11;;;;;;;44.20;6.87;;;19.00;1.00;;;;;;4929811;29;20530;-65
2022/09/08 05:50:36;;;;;;;20.43;3.83;;;19.00;1.00;;;;;;4930362;29;20426;-63
2022/09/08 05:53:02;;;;;;;18.60;4.43;;;19.10;1.00;;;;;;4930426;29;20791;-63
2022/09/08 05:55:28;;;;;;;17.83;4.27;;;19.00;1.00;;;;;;4931883;29;20506;-65
2022/09/08 05:57:55;;;;;;;13.73;4.60;;;19.00;1.00;;;;;;4932333;29;20434;-65
2022/09/08 06:00:21;;;;;;;13.90;5.00;;;18.90;1.00;;;;;;4930791;29;20215;-64
2022/09/08 06:02:51;;;;;;;11.80;3.63;;;18.90;1.00;;;;;;4932567;29;20453;-65
2022/09/08 06:05:22;;;;;;;7.00;3.50;;;18.90;1.00;;;;;;4932106;29;20179;-66
2022/09/08 06:07:48;;;;;;;12.43;3.50;;;18.90;1.00;;;;;;4932012;29;20439;-65
2022/09/08 06:10:15;;;;;;;10.20;3.50;;;18.90;1.00;;;;;;4931531;29;20502;-63
2022/09/08 06:12:41;;;;;;;10.80;3.57;;;18.90;1.00;;;;;;4932265;29;20914;-64
2022/09/08 06:15:07;;;;;;;23.63;4.10;;;18.90;1.00;;;;;;4932226;29;20422;-64
2022/09/08 06:17:33;;;;;;;8.93;2.40;;;19.00;1.00;;;;;;4932366;29;20205;-63
2022/09/08 06:19:59;;;;;;;12.00;2.80;;;19.00;1.00;;;;;;4932196;29;20967;-62
2022/09/08 06:22:25;;;;;;;3.93;2.27;;;19.00;1.00;;;;;;4932466;29;20270;-62
2022/09/08 06:24:51;;;;;;;11.47;2.70;;;18.90;1.00;;;;;;4932217;29;20171;-63
2022/09/08 06:27:48;;;;;;;17.67;3.07;;;18.90;1.00;;;;;;4939199;29;21004;-61
2022/09/08 06:30:18;;;;;;;18.30;3.80;;;19.00;1.00;;;;;;4948009;29;20232;-64
2022/09/08 06:32:46;;;;;;;47.57;8.53;;;19.00;1.00;;;;;;4943832;28;20556;-61
2022/09/08 06:35:19;;;;;;;7.90;2.20;;;19.00;1.00;;;;;;4939284;29;20756;-61
2022/09/08 06:37:48;;;;;;;7.40;2.10;;;19.00;1.00;;;;;;4949017;28;20458;-65
2022/09/08 06:40:14;;;;;;;13.70;2.93;;;19.00;1.00;;;;;;4948550;28;20442;-65
2022/09/08 06:42:54;;;;;;;31.77;3.97;;;19.00;1.00;;;;;;4932670;29;20442;-65
2022/09/08 06:45:24;;;;;;;23.00;3.90;;;18.90;1.00;;;;;;4932298;29;20187;-62
2022/09/08 06:48:06;;;;;;;11.67;2.60;;;18.90;1.00;;;;;;4937653;29;20465;-63
2022/09/08 06:50:33;;;;;;;26.03;5.17;;;18.90;1.00;;;;;;4916667;29;20479;-61
2022/09/08 06:53:05;;;;;;;15.00;2.93;;;18.90;1.00;;;;;;4925961;29;20463;-63
2022/09/08 06:55:46;;;;;;;15.43;3.03;;;19.00;1.00;;;;;;4935342;29;20828;-65
2022/09/08 06:58:29;;;;;;;13.07;3.80;;;19.00;1.00;;;;;;4935207;29;20439;-63
2022/09/08 07:01:02;;;;;;;11.13;3.00;;;19.00;1.00;;;;;;4935719;29;20942;-63
2022/09/08 07:03:58;;;;;;;3.40;2.17;;;19.10;1.00;;;;;;4936012;29;20411;-63
2022/09/08 07:06:34;;;;;;;3.67;2.07;;;19.10;1.00;;;;;;4916522;29;20439;-64
2022/09/08 07:09:28;;;;;;;40.47;6.63;;;19.20;1.00;;;;;;4926364;29;20521;-65
2022/09/08 07:12:17;;;;;;;16.00;3.70;;;19.10;1.00;;;;;;4936892;29;20477;-63
2022/09/08 07:15:09;;;;;;;11.00;3.37;;;19.10;99.90;;;;;;4942476;29;20409;-64
2022/09/08 07:17:49;;;;;;;11.50;3.53;;;19.20;1.00;;;;;;4952805;28;20448;-63
2022/09/08 07:20:15;;;;;;;13.90;3.37;;;19.10;1.00;;;;;;4949247;28;20441;-65
2022/09/08 07:23:05;;;;;;;11.30;2.60;;;19.20;99.90;;;;;;4946445;28;20884;-65
2022/09/08 07:25:49;;;;;;;10.17;3.93;;;19.20;99.90;;;;;;4954160;28;20421;-65
2022/09/08 07:28:19;;;;;;;24.50;4.20;;;19.20;99.90;;;;;;4953994;28;20434;-67
2022/09/08 07:30:50;;;;;;;14.63;3.17;;;19.10;99.90;;;;;;4945936;28;20527;-66
2022/09/08 07:33:35;;;;;;;36.80;4.00;;;19.20;99.90;;;;;;4929321;28;20462;-67
2022/09/08 07:36:28;;;;;;;12.40;2.20;;;19.10;99.90;;;;;;4928411;29;20414;-66
2022/09/08 07:38:56;;;;;;;11.43;1.80;;;19.20;99.90;;;;;;4920507;29;20454;-66
2022/09/08 07:41:37;;;;;;;8.47;2.20;;;19.30;99.90;;;;;;4929930;28;20982;-67
2022/09/08 07:44:14;;;;;;;8.53;2.00;;;19.20;99.90;;;;;;4928962;29;20780;-62
2022/09/08 07:47:08;;;;;;;13.30;2.10;;;19.30;99.90;;;;;;4916310;29;20523;-65
2022/09/08 07:49:45;;;;;;;15.23;3.10;;;19.20;99.90;;;;;;4915495;29;20436;-65
2022/09/08 07:52:32;;;;;;;17.90;3.10;;;19.20;99.90;;;;;;4914821;29;20459;-65
2022/09/08 07:55:24;;;;;;;10.77;2.77;;;19.10;99.90;;;;;;4915421;29;20494;-64
2022/09/08 07:57:58;;;;;;;14.97;2.40;;;19.10;99.90;;;;;;4913323;29;20943;-66
2022/09/08 08:00:43;;;;;;;14.23;3.20;;;19.10;99.90;;;;;;4914113;29;20412;-65
2022/09/08 08:03:32;;;;;;;23.37;3.20;;;19.10;99.90;;;;;;4915508;29;20448;-64
2022/09/08 08:06:19;;;;;;;11.43;2.60;;;19.20;99.90;;;;;;4915968;29;20475;-66
2022/09/08 08:08:45;;;;;;;44.20;5.80;;;19.30;99.90;;;;;;4944348;29;20789;-66
2022/09/08 08:11:28;;;;;;;20.80;4.07;;;19.20;99.90;;;;;;4950500;28;20545;-66
2022/09/08 08:14:14;;;;;;;7.67;2.00;;;19.40;99.90;;;;;;4939143;29;20822;-65
2022/09/08 08:16:59;;;;;;;7.30;2.07;;;19.40;99.90;;;;;;4918668;29;20965;-64
2022/09/08 08:19:42;;;;;;;9.40;2.40;;;19.60;99.90;;;;;;4953080;28;20406;-65
2022/09/08 08:22:18;;;;;;;18.90;2.97;;;19.70;6.20;;;;;;4935408;28;20908;-65
2022/09/08 08:25:00;;;;;;;14.93;2.90;;;19.80;1.00;;;;;;4934009;29;20418;-67
2022/09/08 08:27:42;;;;;;;5.07;2.00;;;20.00;1.00;;;;;;4933750;29;20661;-64
2022/09/08 08:30:19;;;;;;;11.67;2.33;;;20.10;99.90;;;;;;4934099;29;20421;-66
2022/09/08 08:32:54;;;;;;;15.73;1.90;;;20.10;1.00;;;;;;4928426;29;20796;-64
2022/09/08 08:35:41;;;;;;;16.20;2.37;;;20.00;1.00;;;;;;4914889;29;20494;-67
2022/09/08 08:38:12;;;;;;;4.97;1.30;;;19.90;1.00;;;;;;4975311;23;20511;-67
2022/09/08 08:40:57;;;;;;;4.93;1.47;;;19.90;1.00;;;;;;4972150;28;20955;-67
2022/09/08 08:43:55;;;;;;;2.57;1.30;;;19.90;99.90;;;;;;4972864;28;20409;-68
2022/09/08 08:46:38;;;;;;;8.73;1.73;;;20.10;1.00;;;;;;4971443;28;20520;-68
2022/09/08 08:49:15;;;;;;;8.43;2.63;;;20.10;1.00;;;;;;4952383;29;20398;-67
2022/09/08 08:51:54;;;;;;;20.07;2.87;;;20.20;1.00;;;;;;4953198;28;20469;-67
2022/09/08 08:54:43;;;;;;;8.87;2.00;;;20.40;36.20;;;;;;4952646;28;20402;-67
2022/09/08 08:57:16;;;;;;;32.40;3.20;;;20.50;1.00;;;;;;4940846;28;20458;-68
2022/09/08 09:00:06;;;;;;;10.27;2.33;;;20.40;51.50;;;;;;4943918;29;20437;-68
2022/09/08 09:03:04;;;;;;;14.83;3.00;;;20.50;99.90;;;;;;4934019;29;20438;-67
2022/09/08 09:06:03;;;;;;;16.23;2.90;;;20.60;99.90;;;;;;4932566;29;20430;-68
2022/09/08 09:08:57;;;;;;;9.00;2.50;;;20.60;99.90;;;;;;4951823;29;20444;-68
2022/09/08 09:11:53;;;;;;;1.70;1.30;;;20.60;1.00;;;;;;4951472;28;20783;-68
2022/09/08 09:14:50;;;;;;;4.07;1.63;;;20.60;1.00;;;;;;4953219;28;20494;-68
2022/09/08 09:17:34;;;;;;;5.60;1.93;;;20.70;1.00;;;;;;4952315;28;20870;-68
2022/09/08 09:20:11;;;;;;;6.90;2.10;;;21.10;1.00;;;;;;4952118;28;20917;-68
2022/09/08 09:22:52;;;;;;;3.00;2.63;;;21.30;1.00;;;;;;4952848;28;20398;-68
2022/09/08 09:25:31;;;;;;;8.40;2.37;;;21.60;99.90;;;;;;4952000;28;20402;-68
2022/09/08 09:28:10;;;;;;;9.37;2.30;;;21.80;99.90;;;;;;4951959;28;20508;-68
2022/09/08 09:31:17;;;;;;;14.83;2.77;;;21.70;99.90;;;;;;4952400;28;20410;-68
2022/09/08 09:34:12;;;;;;;9.37;2.70;;;21.60;99.90;;;;;;4952116;28;20530;-68
2022/09/08 09:36:47;;;;;;;8.10;2.30;;;21.50;99.90;;;;;;4952529;28;20769;-68
2022/09/08 09:39:34;;;;;;;4.53;2.33;;;21.70;99.90;;;;;;4951080;28;20414;-66
2022/09/08 09:42:31;;;;;;;4.40;1.90;;;22.10;99.90;;;;;;4952437;28;20433;-67
2022/09/08 09:45:16;;;;;;;13.67;3.00;;;22.30;99.90;;;;;;4949662;28;20402;-67
2022/09/08 09:48:21;;;;;;;7.83;1.93;;;22.30;51.70;;;;;;4952790;28;20985;-67
2022/09/08 09:51:37;;;;;;;10.70;2.43;;;22.50;1.00;;;;;;4941245;28;20428;-67
2022/09/08 09:54:27;;;;;;;5.33;1.83;;;22.40;1.00;;;;;;4932255;28;20423;-66
2022/09/08 09:57:08;;;;;;;5.73;2.00;;;22.50;1.00;;;;;;4951488;28;20476;-66
2022/09/08 09:59:53;;;;;;;13.73;3.27;;;23.00;1.00;;;;;;4951361;28;20441;-67
2022/09/08 10:02:40;;;;;;;13.20;2.23;;;23.00;1.00;;;;;;4940721;28;21085;-67
2022/09/08 10:05:27;;;;;;;7.43;2.03;;;22.80;1.00;;;;;;4939443;28;20513;-67
2022/09/08 10:07:58;;;;;;;16.03;2.27;;;22.60;1.00;;;;;;4932015;29;20898;-67
2022/09/08 10:10:39;;;;;;;25.30;4.33;;;22.50;1.00;;;;;;4931836;29;20403;-67
2022/09/08 10:13:47;;;;;;;13.50;3.97;;;22.60;1.00;;;;;;4932314;29;20541;-67
2022/09/08 10:16:27;;;;;;;10.07;2.90;;;23.00;1.00;;;;;;4932328;29;20906;-67
2022/09/08 10:19:27;;;;;;;8.10;1.93;;;23.10;1.00;;;;;;4931578;29;20490;-67
2022/09/08 10:22:30;;;;;;;5.47;2.63;;;23.10;1.00;;;;;;4932523;29;20396;-67
2022/09/08 10:25:15;;;;;;;23.57;2.87;;;23.40;1.00;;;;;;4939906;29;20496;-67
2022/09/08 10:28:06;;;;;;;7.03;2.27;;;23.60;1.00;;;;;;4955265;28;20422;-67
2022/09/08 10:31:08;;;;;;;32.93;4.77;;;23.70;1.00;;;;;;4955516;28;20488;-67
2022/09/08 10:33:40;;;;;;;5.97;2.03;;;23.60;99.90;;;;;;4955214;28;20885;-67
2022/09/08 10:36:06;;;;;;;27.50;3.47;;;23.40;99.90;;;;;;4955863;28;20416;-68
2022/09/08 10:38:55;;;;;;;13.03;3.20;;;23.10;99.90;;;;;;4954277;28;20449;-67
2022/09/08 10:41:45;;;;;;;12.53;2.93;;;23.00;99.90;;;;;;4955261;28;20178;-67
2022/09/08 10:44:32;;;;;;;4.63;2.50;;;22.80;99.90;;;;;;4955342;28;20488;-67
2022/09/08 10:47:09;;;;;;;3.07;1.87;;;22.70;99.90;;;;;;4955472;28;20512;-68
2022/09/08 10:50:07;;;;;;;27.90;4.50;;;23.00;99.90;;;;;;4955243;28;20438;-68
2022/09/08 10:53:10;;;;;;;4.10;2.40;;;23.30;99.90;;;;;;4955255;28;20817;-67
2022/09/08 10:55:45;;;;;;;6.90;1.87;;;23.80;99.90;;;;;;4947183;28;20429;-67
2022/09/08 10:58:44;;;;;;;12.87;1.90;;;23.90;99.90;;;;;;4954334;28;20425;-67
2022/09/08 11:01:27;;;;;;;24.37;3.37;;;24.10;99.90;;;;;;4954658;28;20535;-67
2022/09/08 11:04:41;;;;;;;6.33;2.50;;;24.20;99.90;;;;;;4952336;28;21617;-68
2022/09/08 11:07:19;;;;;;;5.40;2.47;;;23.90;99.90;;;;;;4933490;29;20882;-67
2022/09/08 11:09:59;;;;;;;24.30;3.40;;;23.90;99.90;;;;;;4934908;29;20402;-67
2022/09/08 11:12:27;;;;;;;26.43;4.17;;;23.90;99.90;;;;;;4935829;29;20540;-68
2022/09/08 11:15:11;;;;;;;12.33;3.30;;;23.80;99.90;;;;;;4935377;29;20502;-67
2022/09/08 11:17:49;;;;;;;15.00;3.00;;;23.70;99.90;;;;;;4935185;29;20459;-67
2022/09/08 11:20:30;;;;;;;22.33;5.83;;;23.50;99.90;;;;;;4935248;29;20477;-67
2022/09/08 11:23:16;;;;;;;7.77;2.00;;;23.40;99.90;;;;;;4936020;29;20434;-67
2022/09/08 11:26:02;;;;;;;16.63;2.80;;;23.30;99.90;;;;;;4935091;29;20467;-67
2022/09/08 11:28:46;;;;;;;6.77;2.37;;;23.20;99.90;;;;;;4939173;29;20972;-67
2022/09/08 11:31:57;;;;;;;34.47;4.53;;;23.00;99.90;;;;;;4954371;28;20421;-67
2022/09/08 11:34:38;;;;;;;31.07;4.43;;;22.90;99.90;;;;;;4953329;28;20430;-68
2022/09/08 11:37:24;;;;;;;10.90;2.70;;;22.70;99.90;;;;;;4953563;28;20465;-67
2022/09/08 11:40:00;;;;;;;6.87;2.13;;;22.70;99.90;;;;;;4940916;28;20508;-67
2022/09/08 11:42:37;;;;;;;6.53;2.20;;;23.00;99.90;;;;;;4954942;28;20470;-68
2022/09/08 11:45:06;;;;;;;5.60;1.97;;;23.10;99.90;;;;;;4954316;28;20421;-67
2022/09/08 11:47:41;;;;;;;5.73;2.13;;;22.90;99.90;;;;;;4953904;28;20911;-67
2022/09/08 11:50:19;;;;;;;10.03;2.70;;;22.80;99.90;;;;;;4953950;28;20812;-66
2022/09/08 11:52:54;;;;;;;1.90;1.60;;;22.80;99.90;;;;;;4954757;28;20453;-65
2022/09/08 11:56:04;;;;;;;21.73;3.20;;;22.60;99.90;;;;;;4953609;28;20417;-66
2022/09/08 11:58:57;;;;;;;8.10;2.30;;;22.50;99.90;;;;;;4944390;28;20934;-67
2022/09/08 12:01:41;;;;;;;6.43;1.50;;;22.50;99.90;;;;;;4953221;29;20438;-67
2022/09/08 12:04:27;;;;;;;7.73;1.90;;;23.00;99.90;;;;;;4953691;28;20414;-66
2022/09/08 12:07:02;;;;;;;12.43;2.10;;;23.30;99.90;;;;;;4953538;28;20444;-66
2022/09/08 12:10:21;;;;;;;14.93;2.53;;;23.50;99.90;;;;;;4953168;28;20740;-67
2022/09/08 12:13:02;;;;;;;24.03;3.20;;;23.70;99.90;;;;;;4931575;28;20496;-67
2022/09/08 12:16:05;;;;;;;2.97;1.43;;;23.70;99.90;;;;;;4953754;28;20449;-67
2022/09/08 12:18:50;;;;;;;8.03;2.30;;;23.80;99.90;;;;;;4953066;28;20444;-67
2022/09/08 12:21:27;;;;;;;5.70;1.70;;;23.80;99.90;;;;;;4953997;28;20434;-67
2022/09/08 12:24:28;;;;;;;4.33;1.80;;;23.90;99.90;;;;;;4954013;28;20762;-67
2022/09/08 12:26:56;;;;;;;8.10;1.60;;;23.90;99.90;;;;;;4954639;28;20410;-67
2022/09/08 12:29:34;;;;;;;6.30;1.60;;;24.00;99.90;;;;;;4954404;28;20402;-68
2022/09/08 12:32:00;;;;;;;19.00;3.53;;;23.90;99.90;;;;;;4954842;28;20576;-68
2022/09/08 12:34:45;;;;;;;2.67;1.60;;;24.00;99.90;;;;;;4954608;28;20898;-67
2022/09/08 12:37:13;;;;;;;24.23;4.70;;;24.00;99.90;;;;;;4953919;28;20586;-67
2022/09/08 12:40:03;;;;;;;9.10;2.30;;;24.10;99.90;;;;;;4948334;28;20441;-68
2022/09/08 12:42:37;;;;;;;17.43;2.87;;;24.20;99.90;;;;;;4944663;29;20415;-67
2022/09/08 12:45:11;;;;;;;5.63;1.60;;;24.10;99.90;;;;;;4933642;29;20411;-67
2022/09/08 12:48:05;;;;;;;5.00;1.80;;;24.10;99.90;;;;;;4932843;29;20529;-67
2022/09/08 12:51:00;;;;;;;15.77;2.50;;;24.20;99.90;;;;;;4933607;29;20415;-67
2022/09/08 12:53:32;;;;;;;9.43;1.93;;;24.30;99.90;;;;;;4933447;29;20465;-67
2022/09/08 12:56:20;;;;;;;6.13;1.87;;;24.20;99.90;;;;;;4933897;29;20411;-67
2022/09/08 12:59:18;;;;;;;6.27;1.80;;;24.00;99.90;;;;;;4952235;28;20522;-67
2022/09/08 13:02:07;;;;;;;20.77;3.10;;;23.90;99.90;;;;;;4952982;28;20477;-67
2022/09/08 13:04:36;;;;;;;3.40;1.30;;;23.90;99.90;;;;;;4945332;28;20635;-68
2022/09/08 13:07:37;;;;;;;1.83;1.00;;;23.90;99.90;;;;;;4952141;28;20751;-67
2022/09/08 13:10:06;;;;;;;7.30;1.40;;;23.70;99.90;;;;;;4944830;28;20424;-67
2022/09/08 13:12:41;;;;;;;6.67;1.60;;;23.70;99.90;;;;;;4953374;28;20446;-67
2022/09/08 13:15:06;;;;;;;9.43;2.10;;;23.80;99.90;;;;;;4951980;28;20957;-67
2022/09/08 13:17:39;;;;;;;3.37;1.27;;;24.00;99.90;;;;;;4951797;28;20430;-67
2022/09/08 13:20:22;;;;;;;3.67;1.57;;;24.00;99.90;;;;;;4952286;28;20254;-67
2022/09/08 13:23:16;;;;;;;37.93;4.43;;;23.90;99.90;;;;;;4952628;28;20417;-67
2022/09/08 13:25:54;;;;;;;14.83;2.40;;;23.70;99.90;;;;;;4952134;28;20405;-67
2022/09/08 13:28:35;;;;;;;7.37;1.77;;;23.60;99.90;;;;;;4951816;28;20482;-68
2022/09/08 13:31:19;;;;;;;11.17;2.30;;;23.50;99.90;;;;;;4952999;28;20424;-66
2022/09/08 13:34:07;;;;;;;4.70;1.50;;;23.60;99.90;;;;;;4947456;28;20772;-66